Time;durP1;ratioP1;P1;durP2;ratioP2;P2;SDS_P1;SDS_P2;PMS_P1;PMS_P2;Temp;Humidity;BMP_temperature;BMP_pressure;BME280_temperature;BME280_humidity;BME280_pressure;Samples;Min_cycle;Max_cycle;Signal;HPM_P1;HPM_P2
2021/05/05 00:32:09;;;;;;;;;;;;;;;;;;;;;
2021/05/05 01:16:58;;;;;;;5.80;5.40;;;;;;;16.90;51.55;93993.08;752718;72;1070251;-80
2021/05/05 01:46:14;;;;;;;5.55;5.00;;;;;;;16.14;53.98;93939.41;835266;71;32087;-88
2021/05/05 02:01:27;;;;;;;6.08;5.50;;;;;;;16.67;53.73;93979.59;835255;71;32655;-89
2021/05/05 02:16:15;;;;;;;5.35;4.95;;;;;;;15.91;56.58;93963.50;825168;71;32738;-86
2021/05/05 02:31:15;;;;;;;5.53;5.03;;;;;;;16.30;56.39;93954.03;829111;70;32659;-88
2021/05/05 02:46:11;;;;;;;5.95;5.30;;;;;;;16.58;55.70;93939.98;835950;69;31413;-84
2021/05/05 03:16:14;;;;;;;6.53;5.90;;;;;;;17.14;55.42;93950.51;828166;71;32661;-83
2021/05/05 03:31:15;;;;;;;6.12;5.62;;;;;;;18.28;57.20;93954.14;827628;71;32644;-76
2021/05/05 03:46:08;;;;;;;6.53;5.90;;;;;;;19.54;49.46;93944.36;828313;71;29704;-76
2021/05/05 04:01:14;;;;;;;7.95;6.28;;;;;;;17.94;52.91;93967.67;827512;71;32707;-79
2021/05/05 04:16:26;;;;;;;7.22;6.60;;;;;;;17.35;54.38;93972.02;828252;71;30584;-78
2021/05/05 04:31:09;;;;;;;9.48;7.42;;;;;;;16.98;56.96;93973.03;833873;71;29858;-77
2021/05/05 04:46:08;;;;;;;9.40;8.45;;;;;;;16.66;59.35;93963.47;828415;71;29785;-76
2021/05/05 05:01:09;;;;;;;10.68;9.55;;;;;;;16.57;59.44;93988.23;828757;71;29370;-76
2021/05/05 05:16:14;;;;;;;11.30;10.10;;;;;;;15.56;63.39;93980.59;827427;71;33173;-77
2021/05/05 05:31:10;;;;;;;10.50;9.50;;;;;;;16.28;62.40;93971.34;828837;71;30381;-77
2021/05/05 05:46:15;;;;;;;14.87;11.30;;;;;;;17.59;58.42;93998.34;828009;71;33081;-75
2021/05/05 06:01:10;;;;;;;13.53;12.13;;;;;;;18.84;56.20;94021.30;828439;71;30000;-78
2021/05/05 06:16:14;;;;;;;13.00;11.70;;;;;;;21.71;49.73;93995.17;834081;71;32673;-78
2021/05/05 06:31:10;;;;;;;13.10;11.80;;;;;;;23.91;43.03;93985.97;828101;71;30475;-78
2021/05/05 06:46:13;;;;;;;11.47;9.10;;;;;;;25.26;39.95;93987.19;828392;71;30779;-77
2021/05/05 07:01:14;;;;;;;10.67;9.70;;;;;;;26.18;37.85;93956.67;833878;71;31734;-75
2021/05/05 07:16:08;;;;;;;7.83;7.23;;;;;;;24.56;39.94;93947.09;835788;71;28700;-76
2021/05/05 07:31:16;;;;;;;8.40;7.50;;;;;;;24.35;39.30;93945.25;835350;71;31726;-77
2021/05/05 07:46:22;;;;;;;8.50;6.90;;;;;;;24.38;40.71;93915.55;828468;71;32088;-75
2021/05/05 08:01:17;;;;;;;7.63;6.93;;;;;;;25.21;38.43;93934.66;827454;71;32235;-74
2021/05/05 08:16:09;;;;;;;8.03;7.23;;;;;;;26.06;35.95;93922.23;829638;71;29252;-74
2021/05/05 08:31:14;;;;;;;9.37;7.40;;;;;;;24.47;38.21;93905.72;833991;71;32235;-74
2021/05/05 08:46:09;;;;;;;7.80;6.30;;;;;;;23.12;40.07;93908.31;828112;71;29300;-75
2021/05/05 09:01:41;;;;;;;6.80;6.20;;;;;;;23.76;37.62;93896.20;828383;71;28757;-74
2021/05/05 09:16:18;;;;;;;6.10;5.10;;;;;;;24.71;36.91;93883.38;827582;71;32171;-75
2021/05/05 09:31:11;;;;;;;6.30;5.70;;;;;;;24.26;37.90;93892.60;828159;71;30174;-74
2021/05/05 09:46:40;;;;;;;7.47;6.77;;;;;;;22.22;41.60;93889.34;834168;71;31544;-74
2021/05/05 10:01:20;;;;;;;10.73;6.87;;;;;;;22.65;40.82;93868.11;828214;71;29201;-75
2021/05/05 10:16:15;;;;;;;7.73;6.27;;;;;;;22.05;41.85;93853.98;821856;70;31801;-76
2021/05/05 10:31:24;;;;;;;8.58;5.85;;;;;;;21.76;43.03;93840.52;828740;71;31707;-77
2021/05/05 10:46:29;;;;;;;7.37;6.67;;;;;;;21.45;43.82;93845.87;834304;71;28800;-78
2021/05/05 11:01:22;;;;;;;7.28;6.25;;;;;;;22.64;41.98;93809.64;827653;71;31737;-76
2021/05/05 11:16:08;;;;;;;6.97;6.37;;;;;;;22.85;40.53;93806.20;828477;71;28710;-75
2021/05/05 11:31:15;;;;;;;8.30;5.40;;;;;;;23.26;39.04;93796.45;827763;71;31700;-77
2021/05/05 11:46:15;;;;;;;4.77;4.23;;;;;;;24.56;37.60;93772.72;827876;71;31729;-76
2021/05/05 12:01:17;;;;;;;2.90;2.70;;;;;;;26.09;31.78;93754.68;834133;71;31824;-77
2021/05/05 12:16:30;;;;;;;3.50;3.20;;;;;;;26.09;31.42;93743.33;827731;71;31668;-76
2021/05/05 12:31:12;;;;;;;6.63;3.80;;;;;;;26.85;31.64;93724.73;828357;71;29208;-76
2021/05/05 12:46:26;;;;;;;3.17;2.70;;;;;;;27.30;31.24;93702.77;834207;71;28725;-76
2021/05/05 13:01:12;;;;;;;2.90;2.70;;;;;;;27.11;31.14;123554.15;834313;71;28708;-77
2021/05/05 13:31:17;;;;;;;2.83;2.50;;;;;;;;;;834098;71;28620;-78
2021/05/05 13:46:23;;;;;;;2.57;2.37;;;;;;;25.96;33.29;93717.59;829106;71;29271;-74
2021/05/05 14:01:10;;;;;;;2.70;2.50;;;;;;;26.14;34.60;93715.99;820130;70;29415;-75
2021/05/05 14:16:08;;;;;;;2.70;2.50;;;;;;;25.90;35.34;93716.52;829488;71;28837;-75
2021/05/05 14:31:10;;;;;;;3.07;2.80;;;;;;;25.09;36.40;93707.64;829465;71;29245;-78
2021/05/05 15:01:45;;;;;;;3.87;3.23;;;;;;;24.53;38.32;93712.39;827782;71;32852;-77
2021/05/05 15:16:51;;;;;;;3.47;3.17;;;;;;;24.28;41.95;93691.86;834257;71;28219;-75
2021/05/05 15:46:22;;;;;;;3.50;3.20;;;;;;;24.07;47.56;93669.23;834152;71;32707;-75
2021/05/05 16:16:12;;;;;;;3.00;2.80;;;;;;;23.86;43.95;93686.98;814960;71;32487;-77
2021/05/05 17:16:08;;;;;;;6.03;3.62;;;;;;;20.57;58.84;93673.61;834212;71;29330;-79
2021/05/05 18:16:14;;;;;;;8.13;4.90;;;;;;;18.94;65.22;93681.16;828824;71;29530;-80
2021/05/05 18:31:18;;;;;;;5.60;4.75;;;;;;;18.67;64.48;93692.34;819003;71;32927;-84
